• Join FlightAware (Why Join?)
  • Login
  • US Flag 
12:42PM EDT


 

Airport Tracker/Info


-or-


 

Live Flight TrackerFlight Track Log ✈ UPS1275 ✈ 11-Jul-2013 ✈ KRDU - KSDF

Flight Track Log - Related Links

Times and Time Zones

All times are in EDT time to prevent confusion due to time zone crossing. See the UPS1275 flight status page for this flight to view local times or setup timezone preferences in your user account.

Time Position Orientation Groundspeed Altitude Reporting Facility
EDT Latitude Longitude Course Direction KTS MPH feet Rate Location/Type
10:10PM 35.8500 -78.8350 228° Southwest 231 266 3,200  Level FlightAware
10:10PM 35.8290 -78.8690 233° Southwest 260 299 5,300 3,780 Climbing FlightAware
10:10PM 35.8170 -78.8990 244° Southwest 266 306 6,500 1,920 Climbing FlightAware
10:11PM 35.8010 -78.9430 246° West 272 313 7,000 1,080 Climbing FlightAware
10:11PM 35.7850 -78.9830 244° Southwest 275 316 7,600 1,500 Climbing FlightAware
10:12PM 35.7750 -79.0080 244° Southwest 276 318 8,200 2,400 Climbing FlightAware
10:12PM 35.7680 -79.0260 244° Southwest 280 322 8,800 3,060 Climbing FlightAware
10:13PM 35.7450 -79.0880 245° Southwest 298 343 11,000 1,740 Climbing FlightAware
10:14PM 35.7120 -79.1710 244° Southwest 343 395 11,700 600 Climbing FlightAware
10:14PM 35.7270 -79.1330 64° Northeast 381 438 12,000 180 Climbing FlightAware
10:15PM 35.7690 -79.3870 282° West 380 437 12,000  Level FlightAware
10:16PM 35.7960 -79.4670 293° West 379 436 12,000  Level FlightAware
10:17PM 35.8240 -79.5480 293° West 379 436 12,000 3,900 Level FlightAware
10:17PM 35.8736 -79.6003 293° West 388 447 17,200 5,880 Climbing Atlanta Center
10:18PM 35.9700 -79.7258 314° West 405 466 21,100 2,880 Climbing Atlanta Center
10:19PM 36.0036 -79.8497 289° West 416 479 23,000 1,560 Climbing Atlanta Center
10:20PM 36.0394 -79.9917 287° West 429 494 24,300 1,920 Climbing Atlanta Center
10:21PM 36.0778 -80.1414 288° West 441 507 26,900 1,620 Climbing Atlanta Center
10:27PM 36.2990 -80.9730 288° West 36,000 1,500 Climbing FlightAware
10:27PM 36.3340 -81.0682 295° West 465 535 36,000  Level FlightAware ADS-B
10:28PM 36.3608 -81.1424 294° West 462 532 36,000  Level FlightAware ADS-B
10:28PM 36.3902 -81.2239 294° West 460 529 36,000 -240 Level FlightAware ADS-B
10:29PM 36.4273 -81.3267 294° West 462 532 35,700 -540 Descending FlightAware ADS-B
10:30PM 36.4552 -81.4042 294° West 469 540 35,400 -540 Descending FlightAware ADS-B
10:30PM 36.4825 -81.4804 294° West 472 543 35,200 -420 Descending FlightAware ADS-B
10:31PM 36.5097 -81.5565 294° West 470 541 35,000 -480 Descending FlightAware ADS-B
10:31PM 36.5374 -81.6343 294° West 461 531 34,700 -600 Descending FlightAware ADS-B
10:32PM 36.5644 -81.7110 294° West 463 533 34,400 -540 Descending FlightAware ADS-B
10:32PM 36.5905 -81.7843 294° West 464 534 34,200 -420 Descending FlightAware ADS-B
10:33PM 36.6180 -81.8616 294° West 460 529 34,000 -180 Descending FlightAware ADS-B
10:34PM 36.6500 -81.9540 293° West 465 535 34,000  Level FlightAware
10:34PM 36.6910 -82.0700 294° West 464 534 34,000  Level FlightAware
10:35PM 36.7112 -82.1271 294° West 464 534 34,000  Level FlightAware ADS-B
10:35PM 36.7475 -82.2309 294° West 464 534 34,000  Level FlightAware ADS-B
10:36PM 36.7739 -82.3063 294° West 457 526 34,000  Level FlightAware ADS-B
10:36PM 36.8012 -82.3851 293° West 457 526 34,000  Level FlightAware ADS-B
10:37PM 36.8277 -82.4618 293° West 459 528 34,000  Level FlightAware ADS-B
10:37PM 36.8537 -82.5367 293° West 459 528 34,000  Level FlightAware ADS-B
10:38PM 36.8789 -82.6096 293° West 458 527 34,000  Level FlightAware ADS-B
10:39PM 36.9129 -82.7090 293° West 458 527 34,000  Level FlightAware ADS-B
10:39PM 36.9495 -82.8159 293° West 458 527 34,000  Level FlightAware ADS-B
10:40PM 36.9750 -82.8900 293° West 458 527 34,000 -180 Level FlightAware
10:40PM 36.9902 -82.9353 293° West 458 527 33,900 -480 Descending FlightAware ADS-B
10:41PM 37.0236 -83.0339 293° West 450 518 33,600 -540 Descending FlightAware ADS-B
10:41PM 37.0494 -83.1092 293° West 452 520 33,300 -600 Descending FlightAware ADS-B
10:42PM 37.0743 -83.1827 293° West 453 521 33,000 -480 Descending FlightAware ADS-B
10:42PM 37.1018 -83.2640 293° West 454 522 32,800 -480 Descending FlightAware ADS-B
10:43PM 37.1260 -83.3364 293° West 450 518 32,500 -540 Descending FlightAware ADS-B
10:43PM 37.1504 -83.4094 293° West 449 517 32,300 -540 Descending FlightAware ADS-B
10:44PM 37.1748 -83.4820 293° West 451 519 32,000 -540 Descending FlightAware ADS-B
10:44PM 37.1996 -83.5565 293° West 459 528 31,800 -420 Descending FlightAware ADS-B
10:45PM 37.2210 -83.6210 293° West 457 526 31,600 -540 Descending FlightAware
10:45PM 37.2493 -83.7055 293° West 457 526 31,300 -600 Descending FlightAware ADS-B
10:46PM 37.2757 -83.7854 293° West 457 526 31,000 -480 Descending FlightAware ADS-B
10:47PM 37.2996 -83.8580 293° West 450 518 30,800 -540 Descending FlightAware ADS-B
10:47PM 37.3238 -83.9309 293° West 454 522 30,500 -360 Descending FlightAware ADS-B
10:48PM 37.3550 -84.0240 293° West 454 522 30,400 -480 Descending FlightAware
10:48PM 37.3668 -84.0622 291° West 460 529 30,100 -1,080 Descending FlightAware ADS-B
10:48PM 37.3900 -84.1320 293° West 460 529 29,700 -1,620 Descending FlightAware
10:49PM 37.4059 -84.1812 292° West 459 528 28,800 -3,180 Descending FlightAware ADS-B
10:50PM 37.4638 -84.3596 292° West 453 521 25,000 -3,000 Descending FlightAware ADS-B
10:51PM 37.4914 -84.4451 292° West 423 487 23,300 -2,760 Descending FlightAware ADS-B
10:51PM 37.5133 -84.5130 292° West 413 475 21,900 -2,880 Descending FlightAware ADS-B
10:52PM 37.5402 -84.5951 292° West 403 464 20,100 -1,860 Descending FlightAware ADS-B
10:53PM 37.5840 -84.7320 292° West 399 459 18,500 -900 Descending FlightAware
10:54PM 37.6060 -84.8000 292° West 399 459 18,500  Level FlightAware
10:54PM 37.6330 -84.8850 292° West 399 459 18,500 -3,480 Level FlightAware
10:55PM 37.6770 -84.9850 299° West 10,800 -5,100 Descending FlightAware
10:56PM 37.7350 -85.0640 313° West 290 334 10,000 -480 Descending FlightAware
10:57PM 37.7660 -85.1080 312° West 283 326 10,000 -600 Level FlightAware
10:57PM 37.7990 -85.1540 312° West 271 312 9,300 -720 Descending FlightAware
10:58PM 37.8190 -85.1810 313° West 271 312 9,300 -780 Level FlightAware
10:58PM 37.8180 -85.2240 268° West 271 312 8,700 -1,560 Descending FlightAware
10:58PM 37.8230 -85.2430 288° West 272 313 8,500 -900 Descending FlightAware
10:59PM 37.8330 -85.2920 285° West 267 307 8,100 -720 Descending FlightAware
10:59PM 37.8420 -85.3350 285° West 270 311 7,800 -780 Descending FlightAware
11:00PM 37.8510 -85.3790 285° West 270 311 7,400 -780 Descending FlightAware
11:00PM 37.8600 -85.4210 285° West 267 307 7,100 -780 Descending FlightAware
11:01PM 37.8680 -85.4620 284° West 269 310 6,700 -780 Descending FlightAware
11:01PM 37.8770 -85.5050 285° West 270 311 6,400 -780 Descending FlightAware
11:02PM 37.8900 -85.5700 284° West 275 316 5,800 -840 Descending FlightAware
11:02PM 37.8970 -85.6070 283° West 276 318 5,500 -960 Descending FlightAware
11:03PM 37.9100 -85.6450 293° West 272 313 5,000 -1,200 Descending FlightAware
11:03PM 37.9190 -85.6560 316° Northwest 267 307 4,800 -1,440 Descending FlightAware
11:03PM 37.9330 -85.6650 333° Northwest 259 298 4,400 -1,080 Descending FlightAware
11:03PM 37.9650 -85.6760 345° North 243 280 4,100 -780 Descending FlightAware
11:04PM 37.9930 -85.6850 346° North 231 266 3,700 -1,140 Descending FlightAware
11:04PM 38.0240 -85.6950 346° North 204 235 3,000 -1,200 Descending FlightAware
11:05PM 38.0420 -85.7010 345° North 184 212 2,700 -840 Descending FlightAware
11:05PM 38.0640 -85.7080 346° North 159 183 2,300 -840 Descending FlightAware
11:06PM 38.0760 -85.7120 345° North 136 157 2,000 -780 Descending FlightAware
11:06PM 38.0970 -85.7190 345° North 132 152 1,600 -660 Descending FlightAware
11:07PM 38.1080 -85.7230 344° North 135 155 1,400 -720 Descending FlightAware
11:07PM 38.1250 -85.7280 347° North 138 159 1,100 -780 Descending FlightAware
11:08PM 38.1460 -85.7350 345° North 139 160 700 -780 Descending FlightAware
11:08PM 38.1600 -85.7400 344° North 141 162 400 -360 Descending FlightAware
11:08PM 38.1750 -85.7450 345° North 141 162 400  Level FlightAware
11:09PM 38.1770 -85.7400 63° Northeast 27 31 -420 Descending FlightAware
11:10PM 38.1750 -85.7420 218° Southwest 18 21  Level FlightAware
11:10PM 38.1720 -85.7410 165° South 16 18  Level FlightAware
11:10PM 38.1710 -85.7400 142° Southeast 31 36  Level FlightAware
11:11PM 38.1710 -85.7390 90° East  Level FlightAware
11:15PM 38.1667 -85.7333 208° Southwest  Level FlightAware Approximate